sensor_id;sensor_type;location;lat;lon;timestamp;temperature;humidity
963;DHT22;469;48.770;9.176;2022-07-09T00:04:16;15.50;1.00
963;DHT22;469;48.770;9.176;2022-07-09T00:13:57;15.30;1.00
963;DHT22;469;48.770;9.176;2022-07-09T00:17:03;15.20;1.00
963;DHT22;469;48.770;9.176;2022-07-09T00:19:50;15.20;1.00
963;DHT22;469;48.770;9.176;2022-07-09T00:22:30;15.20;1.00
963;DHT22;469;48.770;9.176;2022-07-09T00:25:33;15.20;1.00
963;DHT22;469;48.770;9.176;2022-07-09T00:28:30;15.10;1.00
963;DHT22;469;48.770;9.176;2022-07-09T00:31:27;15.10;1.00
963;DHT22;469;48.770;9.176;2022-07-09T00:33:58;15.00;1.00
963;DHT22;469;48.770;9.176;2022-07-09T00:36:52;15.00;1.00
963;DHT22;469;48.770;9.176;2022-07-09T00:42:44;15.00;1.00
963;DHT22;469;48.770;9.176;2022-07-09T00:46:24;15.00;1.00
963;DHT22;469;48.770;9.176;2022-07-09T00:49:13;15.00;1.00
963;DHT22;469;48.770;9.176;2022-07-09T00:52:35;15.00;1.00
963;DHT22;469;48.770;9.176;2022-07-09T00:59:23;14.90;1.00
963;DHT22;469;48.770;9.176;2022-07-09T01:02:08;14.90;1.00
963;DHT22;469;48.770;9.176;2022-07-09T01:05:10;14.90;1.00
963;DHT22;469;48.770;9.176;2022-07-09T01:08:08;14.90;1.00
963;DHT22;469;48.770;9.176;2022-07-09T01:11:08;14.90;1.00
963;DHT22;469;48.770;9.176;2022-07-09T01:14:00;14.90;1.00
963;DHT22;469;48.770;9.176;2022-07-09T01:16:56;14.80;1.00
963;DHT22;469;48.770;9.176;2022-07-09T01:23:17;14.70;1.00
963;DHT22;469;48.770;9.176;2022-07-09T01:26:10;14.70;1.00
963;DHT22;469;48.770;9.176;2022-07-09T01:29:19;14.60;1.00
963;DHT22;469;48.770;9.176;2022-07-09T01:32:30;14.60;1.00
963;DHT22;469;48.770;9.176;2022-07-09T01:35:11;14.50;1.00
963;DHT22;469;48.770;9.176;2022-07-09T01:41:09;14.30;1.00
963;DHT22;469;48.770;9.176;2022-07-09T01:43:42;14.20;1.00
963;DHT22;469;48.770;9.176;2022-07-09T01:46:28;14.20;1.00
963;DHT22;469;48.770;9.176;2022-07-09T01:49:20;14.20;1.00
963;DHT22;469;48.770;9.176;2022-07-09T01:59:05;14.00;1.00
963;DHT22;469;48.770;9.176;2022-07-09T02:01:38;14.00;1.00
963;DHT22;469;48.770;9.176;2022-07-09T02:04:21;14.10;1.00
963;DHT22;469;48.770;9.176;2022-07-09T02:07:13;14.00;1.00
963;DHT22;469;48.770;9.176;2022-07-09T02:10:18;14.00;1.00
963;DHT22;469;48.770;9.176;2022-07-09T02:13:07;14.00;1.00
963;DHT22;469;48.770;9.176;2022-07-09T02:19:05;14.00;1.00
963;DHT22;469;48.770;9.176;2022-07-09T02:21:43;13.90;1.00
963;DHT22;469;48.770;9.176;2022-07-09T02:24:17;13.80;1.00
963;DHT22;469;48.770;9.176;2022-07-09T02:26:49;13.70;1.00
963;DHT22;469;48.770;9.176;2022-07-09T02:29:24;13.70;1.00
963;DHT22;469;48.770;9.176;2022-07-09T02:32:08;13.70;1.00
963;DHT22;469;48.770;9.176;2022-07-09T02:35:00;13.70;1.00
963;DHT22;469;48.770;9.176;2022-07-09T02:37:37;13.70;1.00
963;DHT22;469;48.770;9.176;2022-07-09T02:43:20;13.70;1.00
963;DHT22;469;48.770;9.176;2022-07-09T02:46:10;13.70;1.00
963;DHT22;469;48.770;9.176;2022-07-09T02:48:50;13.70;1.00
963;DHT22;469;48.770;9.176;2022-07-09T02:51:38;13.70;1.00
963;DHT22;469;48.770;9.176;2022-07-09T02:54:33;13.70;1.00
963;DHT22;469;48.770;9.176;2022-07-09T02:57:08;13.80;1.00
963;DHT22;469;48.770;9.176;2022-07-09T02:59:35;13.80;1.00
963;DHT22;469;48.770;9.176;2022-07-09T03:02:14;13.80;1.00
963;DHT22;469;48.770;9.176;2022-07-09T03:05:02;13.90;1.00
963;DHT22;469;48.770;9.176;2022-07-09T03:07:49;13.90;1.00
963;DHT22;469;48.770;9.176;2022-07-09T03:10:19;13.90;1.00
963;DHT22;469;48.770;9.176;2022-07-09T03:12:50;13.90;1.00
963;DHT22;469;48.770;9.176;2022-07-09T03:18:13;13.90;1.00
963;DHT22;469;48.770;9.176;2022-07-09T03:21:00;13.80;1.00
963;DHT22;469;48.770;9.176;2022-07-09T03:23:45;13.80;1.00
963;DHT22;469;48.770;9.176;2022-07-09T03:26:47;13.70;1.00
963;DHT22;469;48.770;9.176;2022-07-09T03:29:28;13.70;1.00
963;DHT22;469;48.770;9.176;2022-07-09T03:32:27;13.70;1.00
963;DHT22;469;48.770;9.176;2022-07-09T03:35:31;13.70;1.00
963;DHT22;469;48.770;9.176;2022-07-09T03:38:29;13.70;1.00
963;DHT22;469;48.770;9.176;2022-07-09T03:41:07;13.80;1.00
963;DHT22;469;48.770;9.176;2022-07-09T03:43:37;13.80;1.00
963;DHT22;469;48.770;9.176;2022-07-09T03:46:20;13.80;1.00
963;DHT22;469;48.770;9.176;2022-07-09T03:49:08;13.80;1.00
963;DHT22;469;48.770;9.176;2022-07-09T03:52:22;13.80;1.00
963;DHT22;469;48.770;9.176;2022-07-09T03:55:18;13.70;1.00
963;DHT22;469;48.770;9.176;2022-07-09T03:57:51;13.70;1.00
963;DHT22;469;48.770;9.176;2022-07-09T04:00:22;13.70;1.00
963;DHT22;469;48.770;9.176;2022-07-09T04:03:13;13.70;1.00
963;DHT22;469;48.770;9.176;2022-07-09T04:06:00;13.70;1.00
963;DHT22;469;48.770;9.176;2022-07-09T04:08:44;13.70;1.00
963;DHT22;469;48.770;9.176;2022-07-09T04:11:21;13.70;1.00
963;DHT22;469;48.770;9.176;2022-07-09T04:14:05;13.70;1.00
963;DHT22;469;48.770;9.176;2022-07-09T04:16:32;13.70;1.00
963;DHT22;469;48.770;9.176;2022-07-09T04:22:08;13.90;1.00
963;DHT22;469;48.770;9.176;2022-07-09T04:24:46;14.00;1.00
963;DHT22;469;48.770;9.176;2022-07-09T04:27:13;14.00;1.00
963;DHT22;469;48.770;9.176;2022-07-09T04:29:45;14.00;1.00
963;DHT22;469;48.770;9.176;2022-07-09T04:32:19;14.10;1.00
963;DHT22;469;48.770;9.176;2022-07-09T04:34:58;14.00;1.00
963;DHT22;469;48.770;9.176;2022-07-09T04:37:29;14.00;1.00
963;DHT22;469;48.770;9.176;2022-07-09T04:40:01;14.00;1.00
963;DHT22;469;48.770;9.176;2022-07-09T04:42:46;14.00;1.00
963;DHT22;469;48.770;9.176;2022-07-09T04:45:25;14.10;1.00
963;DHT22;469;48.770;9.176;2022-07-09T04:48:02;14.10;1.00
963;DHT22;469;48.770;9.176;2022-07-09T04:50:37;14.20;1.00
963;DHT22;469;48.770;9.176;2022-07-09T04:53:11;14.20;1.00
963;DHT22;469;48.770;9.176;2022-07-09T04:55:38;14.20;1.00
963;DHT22;469;48.770;9.176;2022-07-09T04:58:05;14.30;1.00
963;DHT22;469;48.770;9.176;2022-07-09T05:00:37;14.30;1.00
963;DHT22;469;48.770;9.176;2022-07-09T05:03:16;14.40;1.00
963;DHT22;469;48.770;9.176;2022-07-09T05:05:58;14.40;1.00
963;DHT22;469;48.770;9.176;2022-07-09T05:08:42;14.40;1.00
963;DHT22;469;48.770;9.176;2022-07-09T05:11:11;14.50;1.00
963;DHT22;469;48.770;9.176;2022-07-09T05:13:55;14.50;1.00
963;DHT22;469;48.770;9.176;2022-07-09T05:16:29;14.60;1.00
963;DHT22;469;48.770;9.176;2022-07-09T05:19:00;14.60;1.00
963;DHT22;469;48.770;9.176;2022-07-09T05:21:49;14.70;1.00
963;DHT22;469;48.770;9.176;2022-07-09T05:24:53;14.80;1.00
963;DHT22;469;48.770;9.176;2022-07-09T05:27:30;14.90;1.00
963;DHT22;469;48.770;9.176;2022-07-09T05:30:42;15.10;1.00
963;DHT22;469;48.770;9.176;2022-07-09T05:36:53;15.40;1.00
963;DHT22;469;48.770;9.176;2022-07-09T05:39:56;15.60;1.00
963;DHT22;469;48.770;9.176;2022-07-09T05:42:52;15.70;1.00
963;DHT22;469;48.770;9.176;2022-07-09T05:45:36;15.80;1.00
963;DHT22;469;48.770;9.176;2022-07-09T05:48:24;15.90;1.00
963;DHT22;469;48.770;9.176;2022-07-09T05:54:15;16.10;1.00
963;DHT22;469;48.770;9.176;2022-07-09T05:57:18;16.30;1.00
963;DHT22;469;48.770;9.176;2022-07-09T05:59:49;16.40;1.00
963;DHT22;469;48.770;9.176;2022-07-09T06:02:39;16.60;1.00
963;DHT22;469;48.770;9.176;2022-07-09T06:08:10;16.80;1.00
963;DHT22;469;48.770;9.176;2022-07-09T06:14:10;16.90;1.00
963;DHT22;469;48.770;9.176;2022-07-09T06:17:12;17.20;1.00
